首页
METAR-TAF:

METAR-TAF

机场 :

代托纳比奇, 佛罗里达州, 美国

纬度: 29-10-38N, 经度: 081-03-36W, 海拔: 10米

当前天气观测

该预报发布于18分钟前的05:53 UTC
静风
温度 23°C
湿度 100%
气压 1020 hPa
能見度: 16.1公里
多云层高于15000英尺

METAR: KDAB 080553Z 00000KT 10SM BKN150 23/23 A3011 RMK AO2 SLP197 60006 T02280228 10244 20228 56010 $

时间: 02:11 (06:11 UTC)

预报

该预报发布于47分钟前的05:24 UTC
预报有效从08日的 06点(UTC)到 09日的 06点(UTC)
风速3节,风向西南
能見度: 10公里
散云层高于25000英尺
从 08日的 1430点(UTC)
风速4节,风向多变
能見度: 10公里
散云层高于3500英尺
散云层高于25000英尺
从 08日的 2000点(UTC)
风速8节,风向
能見度: 10公里
少量云层高于3500英尺, 积雨云.
散云层高于7000英尺
多云层高于25000英尺
附近有雷暴
从 09日的 0000点(UTC)
风速5节,风向南转西南
能見度: 10公里
散云层高于5000英尺
散云层高于25000英尺

TAF: KDAB 080524Z 0806/0906 22003KT P6SM SCT250 FM081430 VRB04KT P6SM SCT035 SCT250 FM082000 10008KT P6SM VCTS FEW035CB SCT070 BKN250 FM090000 21005KT P6SM SCT050 SCT250

超过4000个机场的气象观测和天气预报(METAR&TAF报告)。

可查询的气象台以黄色和红色小点在地图上表示。

将鼠标移到小点上方,可查看气象台名称。

然后点击查看天气观测和预报。

如需切换地图:点击带黑十字的绿色按钮放大地图;点击带横线的绿色按钮缩小地图;或者点击绿色箭头查看邻近地区的地图。


METAR-TAF: